Kanpur — A8KG8 — position and weather

sailwx.info

Track history (hours):
 
Tides and Currents Weather Stations Pressure Air Temp Water Temp Dewpoint Dewpoint Depression Visibility Wind Speed Wind Dir Waves Ship Positions

Kanpur

Last reported at 2017-Sep-14 10:30 UTC. Time now 2017-Sep-23 03:49 UTC.
Position N 29°59' W 093°54'.
Warning: this ship's position is 8 days out of date.

Length 244 m; draft 9 m.

Type: Ship. MMSI: 636013055.

Date/timePositionNaut miles runAvg speedWind from/ knotsBaromVisibWave heightAir tempDewpointWater temp
2017-Sep-14 10:30N 29°59' W 093°54'0 0.0
2017-Sep-14 10:00N 29°59' W 093°54'0 0.0
2017-Sep-14 09:27N 29°59' W 093°54'0 0.0
2017-Sep-14 09:00N 29°59' W 093°54'0 0.0
2017-Sep-14 08:21N 29°59' W 093°54'0 0.0
2017-Sep-14 07:00N 29°59' W 093°54'0 0.0
2017-Sep-14 05:54N 29°59' W 093°54'0 0.0
2017-Sep-14 05:30N 29°59' W 093°54'0 0.0
2017-Sep-14 05:00N 29°59' W 093°54'0 0.0
2017-Sep-14 04:18N 29°59' W 093°54'2 0.1
2017-Sep-13 04:00N 29°60' W 093°56'0 0.0
2017-Sep-13 03:30N 29°60' W 093°56'0 0.0
2017-Sep-13 03:00N 29°60' W 093°56'0 0.0
2017-Sep-13 02:30N 29°60' W 093°56'0 0.0
2017-Sep-13 02:00N 29°60' W 093°56'0 0.0
2017-Sep-13 01:30N 29°60' W 093°56'7 0.6
2017-Sep-12 14:08N 29°53' W 093°55'1 6.3
2017-Sep-12 14:00N 29°52' W 093°56'  
Track history (hours):
 
Tides and Currents Weather Stations Pressure Air Temp Water Temp Dewpoint Dewpoint Depression Visibility Wind Speed Wind Dir Waves Ship Positions

Kanpur

Last reported at 2017-Sep-14 10:30 UTC. Time now 2017-Sep-23 03:49 UTC.
Position N 29°59' W 093°54'.
Warning: this ship's position is 8 days out of date.

Length 244 m; draft 9 m.

Type: Ship. MMSI: 636013055.

Date/timePositionNaut miles runAvg speedWind from/ knotsBaromVisibWave heightAir tempDewpointWater temp
2017-Sep-14 10:30N 29°59' W 093°54'0 0.0
2017-Sep-14 10:00N 29°59' W 093°54'0 0.0
2017-Sep-14 09:27N 29°59' W 093°54'0 0.0
2017-Sep-14 09:00N 29°59' W 093°54'0 0.0
2017-Sep-14 08:21N 29°59' W 093°54'0 0.0
2017-Sep-14 07:00N 29°59' W 093°54'0 0.0
2017-Sep-14 05:54N 29°59' W 093°54'0 0.0
2017-Sep-14 05:30N 29°59' W 093°54'0 0.0
2017-Sep-14 05:00N 29°59' W 093°54'0 0.0
2017-Sep-14 04:18N 29°59' W 093°54'2 0.1
2017-Sep-13 04:00N 29°60' W 093°56'0 0.0
2017-Sep-13 03:30N 29°60' W 093°56'0 0.0
2017-Sep-13 03:00N 29°60' W 093°56'0 0.0
2017-Sep-13 02:30N 29°60' W 093°56'0 0.0
2017-Sep-13 02:00N 29°60' W 093°56'0 0.0
2017-Sep-13 01:30N 29°60' W 093°56'7 0.6
2017-Sep-12 14:08N 29°53' W 093°55'1 6.3
2017-Sep-12 14:00N 29°52' W 093°56'  

Dump ship's entire track history